Terminal Aerodrome Forecast
Issued by NWS

Home | Current Version | Previous Version | Text Only | Print | Product List | Glossary On
Versions: 1 2 3 4 5 6 7 8 9 10 11 12 13 14 15 16 17 18 19 20 21 22 23 24 25 26 27 28 29 30 31 32 33 34 35
000
FTUS44 KEWX 180229 AAB
TAFSSF
TAF AMD
KSSF 180229Z 1802/1824 04014KT P6SM VCTS OVC009CB
     FM180300 01006KT P6SM VCSH OVC005
     FM181600 36005KT P6SM -SHRA OVC007=

USA.gov is the U.S. government's official web portal to all federal, state and local government web resources and services.